createdAt,value
2023-02-17T00:01:38.142Z,71.30
2023-02-17T00:04:06.362Z,71.40
2023-02-17T00:06:36.312Z,71.40
2023-02-17T00:09:04.452Z,71.30
2023-02-17T00:11:32.600Z,71.40
2023-02-17T00:14:01.405Z,71.30
2023-02-17T00:16:30.884Z,71.40
2023-02-17T00:19:01.683Z,71.10
2023-02-17T00:21:31.931Z,71.10
2023-02-17T00:24:02.100Z,71.10
2023-02-17T00:26:30.409Z,71.10
2023-02-17T00:29:00.190Z,71.10
2023-02-17T00:31:28.869Z,71.10
2023-02-17T00:33:57.587Z,71.00
2023-02-17T00:36:27.455Z,71.00
2023-02-17T00:38:57.927Z,71.10
2023-02-17T00:41:28.531Z,71.10
2023-02-17T00:43:57.013Z,71.10
2023-02-17T00:46:25.703Z,71.00
2023-02-17T00:48:54.784Z,71.10
2023-02-17T00:51:24.094Z,71.00
2023-02-17T00:53:52.844Z,71.00
2023-02-17T00:56:21.416Z,70.90
2023-02-17T00:58:51.009Z,70.70
2023-02-17T01:01:19.592Z,70.70
2023-02-17T01:03:47.687Z,70.80
2023-02-17T01:06:23.513Z,70.80
2023-02-17T01:08:52.538Z,70.90
2023-02-17T01:11:20.839Z,71.00
2023-02-17T01:13:51.025Z,70.90
2023-02-17T01:16:20.875Z,70.90
2023-02-17T01:18:49.551Z,70.90
2023-02-17T01:21:19.061Z,71.00
2023-02-17T01:23:47.665Z,71.00
2023-02-17T01:26:17.143Z,71.00
2023-02-17T01:28:45.440Z,70.90
2023-02-17T01:31:16.794Z,70.90
2023-02-17T01:33:45.825Z,71.00
2023-02-17T01:36:15.753Z,71.00
2023-02-17T01:38:44.393Z,70.90
2023-02-17T01:41:14.218Z,70.90
2023-02-17T01:43:42.462Z,70.90
2023-02-17T01:46:11.630Z,70.90
2023-02-17T01:48:46.324Z,71.00
2023-02-17T01:51:18.052Z,71.00
2023-02-17T01:53:52.153Z,71.00
2023-02-17T01:56:20.284Z,70.90
2023-02-17T01:58:53.481Z,70.90
2023-02-17T02:01:22.236Z,70.90
2023-02-17T02:03:54.094Z,70.90
2023-02-17T02:06:25.944Z,71.00
2023-02-17T02:08:59.586Z,71.00
2023-02-17T02:11:27.704Z,71.00
2023-02-17T02:13:56.384Z,71.00
2023-02-17T02:16:30.574Z,70.90
2023-02-17T02:19:06.357Z,70.90
2023-02-17T02:22:08.936Z,71.10
2023-02-17T02:24:48.284Z,71.00
2023-02-17T02:27:41.158Z,71.10
2023-02-17T02:30:46.632Z,71.30
2023-02-17T02:33:24.099Z,71.40
2023-02-17T02:35:58.967Z,71.40
2023-02-17T02:38:32.985Z,71.60
2023-02-17T02:41:05.930Z,71.70
2023-02-17T02:43:34.264Z,71.70
2023-02-17T02:46:02.459Z,71.70
2023-02-17T02:48:32.309Z,71.80
2023-02-17T02:51:20.275Z,71.80
2023-02-17T02:54:33.065Z,71.90
2023-02-17T02:57:14.886Z,72.00
2023-02-17T02:59:51.724Z,72.00
2023-02-17T03:02:28.615Z,71.90
2023-02-17T03:05:07.194Z,72.00
2023-02-17T03:07:38.355Z,72.00
2023-02-17T03:10:09.188Z,72.00
2023-02-17T03:12:39.553Z,72.00
2023-02-17T03:15:14.774Z,72.10
2023-02-17T03:17:42.854Z,72.20
2023-02-17T03:20:14.675Z,72.10
2023-02-17T03:22:46.660Z,72.20
2023-02-17T03:25:15.677Z,72.20
2023-02-17T03:27:43.857Z,72.20
2023-02-17T03:30:13.108Z,72.10
2023-02-17T03:32:42.780Z,72.20
2023-02-17T03:35:12.603Z,72.20
2023-02-17T03:37:40.773Z,72.30
2023-02-17T03:40:10.505Z,72.40
2023-02-17T03:42:38.654Z,72.40
2023-02-17T03:45:07.971Z,72.40
2023-02-17T03:47:36.567Z,72.40
2023-02-17T03:50:05.559Z,72.30
2023-02-17T03:52:35.496Z,72.50
2023-02-17T03:55:04.058Z,72.40
2023-02-17T03:57:34.819Z,72.40
2023-02-17T04:00:04.949Z,72.50
2023-02-17T04:02:33.065Z,72.50
2023-02-17T04:05:01.637Z,72.50
2023-02-17T04:07:30.310Z,72.50
2023-02-17T04:09:59.802Z,72.50
2023-02-17T04:12:28.431Z,72.50
2023-02-17T04:14:57.017Z,72.50
2023-02-17T04:17:25.114Z,72.50
2023-02-17T04:19:53.737Z,72.50
2023-02-17T04:22:21.816Z,72.50
2023-02-17T04:24:49.927Z,72.50
2023-02-17T04:27:19.856Z,72.50
2023-02-17T04:29:47.938Z,72.70
2023-02-17T04:32:16.543Z,72.50
2023-02-17T04:34:45.130Z,72.60
2023-02-17T04:37:13.688Z,72.60
2023-02-17T04:39:41.932Z,72.50
2023-02-17T04:42:10.529Z,72.50
2023-02-17T04:44:40.478Z,72.60
2023-02-17T04:47:08.617Z,72.60
2023-02-17T04:49:36.681Z,72.60
2023-02-17T04:52:05.528Z,72.60
2023-02-17T04:54:34.116Z,72.60
2023-02-17T04:57:02.190Z,72.60
2023-02-17T04:59:30.776Z,72.70
2023-02-17T05:02:00.244Z,72.70
2023-02-17T05:04:28.834Z,72.70
2023-02-17T05:06:57.462Z,72.70
2023-02-17T05:09:25.618Z,72.70
2023-02-17T05:11:54.320Z,72.60
2023-02-17T05:14:22.492Z,73.60
2023-02-17T05:16:51.090Z,72.70
2023-02-17T05:19:20.507Z,72.70
2023-02-17T05:21:49.084Z,72.70
2023-02-17T05:24:17.204Z,72.70
2023-02-17T05:26:45.864Z,72.70
2023-02-17T05:29:13.990Z,72.90
2023-02-17T05:31:42.192Z,73.00
2023-02-17T05:34:10.302Z,73.10
2023-02-17T05:36:40.296Z,73.00
2023-02-17T05:39:09.069Z,72.90
2023-02-17T05:41:37.212Z,72.90
2023-02-17T05:44:06.177Z,73.00
2023-02-17T05:46:34.922Z,73.00
2023-02-17T05:49:03.552Z,73.00
2023-02-17T05:51:31.708Z,73.10
2023-02-17T05:54:01.622Z,73.20
2023-02-17T05:56:30.334Z,73.30
2023-02-17T05:58:58.434Z,73.30
2023-02-17T06:01:27.072Z,73.30
2023-02-17T06:03:55.887Z,73.30
2023-02-17T06:06:23.962Z,73.40
2023-02-17T06:08:52.578Z,73.50
2023-02-17T06:11:22.058Z,73.80
2023-02-17T06:13:50.188Z,73.90
2023-02-17T06:16:18.755Z,73.80
2023-02-17T06:18:47.363Z,73.80
2023-02-17T06:21:15.927Z,73.70
2023-02-17T06:23:44.478Z,73.80
2023-02-17T06:26:12.596Z,73.80
2023-02-17T06:28:42.532Z,73.70
2023-02-17T06:31:10.710Z,73.60
2023-02-17T06:33:39.316Z,73.90
2023-02-17T06:36:08.622Z,73.90
2023-02-17T06:38:39.031Z,74.00
2023-02-17T06:41:07.178Z,73.90
2023-02-17T06:43:35.752Z,74.00
2023-02-17T06:46:05.865Z,74.20
2023-02-17T06:48:34.697Z,74.30
2023-02-17T06:51:02.809Z,74.20
2023-02-17T06:53:31.369Z,74.30
2023-02-17T06:55:59.546Z,74.30
2023-02-17T06:58:27.662Z,74.60
2023-02-17T07:00:56.742Z,74.60
2023-02-17T07:03:26.757Z,74.60
2023-02-17T07:05:59.483Z,74.60
2023-02-17T07:08:27.567Z,74.80
2023-02-17T07:10:56.268Z,75.00
2023-02-17T07:13:24.830Z,75.30
2023-02-17T07:15:52.963Z,75.20
2023-02-17T07:18:21.550Z,75.30
2023-02-17T07:20:51.003Z,75.50
2023-02-17T07:23:19.512Z,75.70
2023-02-17T07:25:47.596Z,76.00
2023-02-17T07:28:16.265Z,75.60
2023-02-17T07:30:45.535Z,75.70
2023-02-17T07:33:14.128Z,75.80
2023-02-17T07:35:44.426Z,76.00
2023-02-17T07:38:14.559Z,76.10
2023-02-17T07:40:43.108Z,76.40
2023-02-17T07:43:11.628Z,76.30
2023-02-17T07:45:40.169Z,76.20
2023-02-17T07:48:08.284Z,76.10
2023-02-17T07:50:36.798Z,76.10
2023-02-17T07:53:04.852Z,76.20
2023-02-17T07:55:34.812Z,76.20
2023-02-17T07:58:02.904Z,76.50
2023-02-17T08:00:31.492Z,76.80
2023-02-17T08:03:00.144Z,76.70
2023-02-17T08:05:28.769Z,76.90
2023-02-17T08:08:11.192Z,77.20
2023-02-17T08:10:58.769Z,77.60
2023-02-17T08:13:28.785Z,76.80
2023-02-17T08:15:56.863Z,76.80
2023-02-17T08:18:25.910Z,76.70
2023-02-17T08:20:54.117Z,76.90
2023-02-17T08:23:22.712Z,77.00
2023-02-17T08:25:52.676Z,77.50
2023-02-17T08:28:22.131Z,77.70
2023-02-17T08:30:50.439Z,77.20
2023-02-17T08:33:20.067Z,77.20
2023-02-17T08:35:48.357Z,77.20
2023-02-17T08:38:16.984Z,77.40
2023-02-17T08:40:45.505Z,77.20
2023-02-17T08:43:15.690Z,77.20
2023-02-17T08:45:44.152Z,77.60
2023-02-17T08:48:12.721Z,77.40
2023-02-17T08:50:40.837Z,78.30
2023-02-17T08:53:09.546Z,77.30
2023-02-17T08:55:48.687Z,77.60
2023-02-17T08:58:19.516Z,77.70
2023-02-17T09:00:48.123Z,78.10
2023-02-17T09:03:16.402Z,78.30
2023-02-17T09:05:44.655Z,78.50
2023-02-17T09:08:13.188Z,78.30
2023-02-17T09:10:41.896Z,78.30
2023-02-17T09:13:09.987Z,78.50
2023-02-17T09:15:39.944Z,78.50
2023-02-17T09:18:08.142Z,78.70
2023-02-17T09:20:38.170Z,79.20
2023-02-17T09:23:06.798Z,79.20
2023-02-17T09:25:35.108Z,79.20
2023-02-17T09:28:03.673Z,79.00
2023-02-17T09:30:32.582Z,79.00
2023-02-17T09:33:02.794Z,79.10
2023-02-17T09:35:32.090Z,79.80
2023-02-17T09:38:00.770Z,79.50
2023-02-17T09:40:39.526Z,79.20
2023-02-17T09:43:12.507Z,79.40
2023-02-17T09:45:42.387Z,79.20
2023-02-17T09:48:14.652Z,79.20
2023-02-17T09:50:47.295Z,79.40
2023-02-17T09:53:24.028Z,79.40
2023-02-17T09:55:55.126Z,79.50
2023-02-17T09:58:27.632Z,79.50
2023-02-17T10:00:59.032Z,80.70
2023-02-17T10:03:36.153Z,79.70
2023-02-17T10:06:14.879Z,79.80
2023-02-17T10:08:50.063Z,80.10
2023-02-17T10:11:28.530Z,79.80
2023-02-17T10:14:01.170Z,80.10
2023-02-17T10:16:34.472Z,80.50
2023-02-17T10:19:12.208Z,80.30
2023-02-17T10:21:47.333Z,80.30
2023-02-17T10:24:15.994Z,80.50
2023-02-17T10:26:58.466Z,80.50
2023-02-17T10:29:37.856Z,80.70
2023-02-17T10:32:19.941Z,80.90
2023-02-17T10:35:00.339Z,80.60
2023-02-17T10:37:39.417Z,80.60
2023-02-17T10:40:21.922Z,80.50
2023-02-17T10:42:53.388Z,80.70
2023-02-17T10:45:30.162Z,80.50
2023-02-17T10:48:03.584Z,81.10
2023-02-17T10:50:33.163Z,80.70
2023-02-17T10:53:01.753Z,80.60
2023-02-17T10:55:38.743Z,80.50
2023-02-17T10:58:14.865Z,80.70
2023-02-17T11:00:43.984Z,80.50
2023-02-17T11:03:21.477Z,80.50
2023-02-17T11:05:56.955Z,80.80
2023-02-17T11:08:34.016Z,80.70
2023-02-17T11:11:05.571Z,80.70
2023-02-17T11:13:37.654Z,80.40
2023-02-17T11:16:07.375Z,80.50
2023-02-17T11:18:40.776Z,80.30
2023-02-17T11:21:13.089Z,80.20
2023-02-17T11:23:50.663Z,80.60
2023-02-17T11:26:23.737Z,80.50
2023-02-17T11:28:52.003Z,80.60
2023-02-17T11:31:26.231Z,80.40
2023-02-17T11:33:56.841Z,80.50
2023-02-17T11:36:28.986Z,80.50
2023-02-17T11:38:58.407Z,80.90
2023-02-17T11:41:26.989Z,81.40
2023-02-17T11:43:58.578Z,81.20
2023-02-17T11:46:33.290Z,81.40
2023-02-17T11:49:25.549Z,81.60
2023-02-17T11:52:06.485Z,82.00
2023-02-17T11:54:49.343Z,81.80
2023-02-17T11:57:35.145Z,81.90
2023-02-17T12:00:16.264Z,81.90
2023-02-17T12:03:11.400Z,81.90
2023-02-17T12:05:57.863Z,82.00
2023-02-17T12:08:39.734Z,82.60
2023-02-17T12:11:18.085Z,83.00
2023-02-17T12:13:57.158Z,82.90
2023-02-17T12:16:43.476Z,83.20
2023-02-17T12:19:27.728Z,82.80
2023-02-17T12:22:08.838Z,82.80
2023-02-17T12:24:55.093Z,83.20
2023-02-17T12:27:34.638Z,83.00
2023-02-17T12:30:22.658Z,82.60
2023-02-17T12:33:04.104Z,82.80
2023-02-17T12:35:42.462Z,82.80
2023-02-17T12:38:17.161Z,82.70
2023-02-17T12:40:53.349Z,82.90
2023-02-17T12:43:27.563Z,82.90
2023-02-17T12:45:58.071Z,83.00
2023-02-17T12:48:35.354Z,82.90
2023-02-17T12:51:11.168Z,83.00
2023-02-17T12:53:46.240Z,83.10
2023-02-17T12:56:44.523Z,83.10
2023-02-17T12:59:18.522Z,83.30
2023-02-17T13:01:54.581Z,82.80
2023-02-17T13:04:26.761Z,82.80
2023-02-17T13:07:03.491Z,82.80
2023-02-17T13:09:36.027Z,82.90
2023-02-17T13:12:17.040Z,82.80
2023-02-17T13:14:48.537Z,83.00
2023-02-17T13:17:28.129Z,83.20
2023-02-17T13:20:08.010Z,83.50
2023-02-17T13:22:36.921Z,83.40
2023-02-17T13:25:05.646Z,82.80
2023-02-17T13:27:35.953Z,83.30
2023-02-17T13:30:10.189Z,83.20
2023-02-17T13:32:39.646Z,83.10
2023-02-17T13:35:19.583Z,82.80
2023-02-17T13:37:48.447Z,82.70
2023-02-17T13:40:41.123Z,82.90
2023-02-17T13:43:28.464Z,83.90
2023-02-17T13:46:01.877Z,83.40
2023-02-17T13:48:32.671Z,83.20
2023-02-17T13:51:02.644Z,83.10
2023-02-17T13:53:32.564Z,83.20
2023-02-17T13:56:02.924Z,83.10
2023-02-17T13:58:34.603Z,82.10
2023-02-17T14:01:06.996Z,83.20
2023-02-17T14:03:37.580Z,83.80
2023-02-17T14:06:06.576Z,84.10
2023-02-17T14:08:38.170Z,83.70
2023-02-17T14:11:10.600Z,83.40
2023-02-17T14:13:40.628Z,83.20
2023-02-17T14:16:29.563Z,82.80
2023-02-17T14:19:06.884Z,82.60
2023-02-17T14:21:36.729Z,82.30
2023-02-17T14:24:05.497Z,82.10
2023-02-17T14:26:38.044Z,81.80
2023-02-17T14:29:08.852Z,81.50
2023-02-17T14:31:43.439Z,81.40
2023-02-17T14:34:25.871Z,82.30
2023-02-17T14:36:54.538Z,81.50
2023-02-17T14:39:23.041Z,81.70
2023-02-17T14:41:51.251Z,81.80
2023-02-17T14:44:19.337Z,81.50
2023-02-17T14:46:49.357Z,81.30
2023-02-17T14:49:17.488Z,81.00
2023-02-17T14:51:45.587Z,80.70
2023-02-17T14:54:16.862Z,80.50
2023-02-17T14:56:49.731Z,80.20
2023-02-17T14:59:17.847Z,79.90
2023-02-17T15:01:46.117Z,80.70
2023-02-17T15:04:16.083Z,79.80
2023-02-17T15:06:45.825Z,79.80
2023-02-17T15:09:17.206Z,79.60
2023-02-17T15:11:48.904Z,79.30
2023-02-17T15:14:19.990Z,79.20
2023-02-17T15:16:49.638Z,79.00
2023-02-17T15:19:21.196Z,78.80
2023-02-17T15:21:51.915Z,78.60
2023-02-17T15:24:23.782Z,78.60
2023-02-17T15:26:52.195Z,78.30
2023-02-17T15:29:23.045Z,78.30
2023-02-17T15:31:52.618Z,78.20
2023-02-17T15:34:24.938Z,78.30
2023-02-17T15:36:53.510Z,78.30
2023-02-17T15:39:23.379Z,78.30
2023-02-17T15:41:54.742Z,78.30
2023-02-17T15:44:27.105Z,78.50
2023-02-17T15:46:57.385Z,78.50
2023-02-17T15:49:26.934Z,78.60
2023-02-17T15:51:55.049Z,79.10
2023-02-17T15:54:23.171Z,79.10
2023-02-17T15:56:53.954Z,79.20
2023-02-17T15:59:25.786Z,79.30
2023-02-17T16:01:56.094Z,79.30
2023-02-17T16:04:24.701Z,79.30
2023-02-17T16:06:54.186Z,79.20
2023-02-17T16:09:22.894Z,79.50
2023-02-17T16:11:53.715Z,79.70
2023-02-17T16:14:27.889Z,79.70
2023-02-17T16:16:56.546Z,80.20
2023-02-17T16:19:25.140Z,80.20
2023-02-17T16:21:54.661Z,80.30
2023-02-17T16:24:22.772Z,80.40
2023-02-17T16:26:51.416Z,80.40
2023-02-17T16:29:21.841Z,80.50
2023-02-17T16:31:51.034Z,80.50
2023-02-17T16:34:21.921Z,80.40
2023-02-17T16:36:51.403Z,80.60
2023-02-17T16:39:22.191Z,80.60
2023-02-17T16:41:51.401Z,80.80
2023-02-17T16:44:21.739Z,80.60
2023-02-17T16:46:52.495Z,80.70
2023-02-17T16:49:24.812Z,80.80
2023-02-17T16:51:53.129Z,80.80
2023-02-17T16:54:22.617Z,80.80
2023-02-17T16:56:53.052Z,80.80
2023-02-17T16:59:23.004Z,80.80
2023-02-17T17:01:53.249Z,81.00
2023-02-17T17:04:22.614Z,81.00
2023-02-17T17:06:52.934Z,81.00
2023-02-17T17:09:25.202Z,81.40
2023-02-17T17:11:53.353Z,81.30
2023-02-17T17:14:21.966Z,81.30
2023-02-17T17:16:56.314Z,81.60
2023-02-17T17:19:24.631Z,81.60
2023-02-17T17:21:52.911Z,81.30
2023-02-17T17:24:22.867Z,81.30
2023-02-17T17:26:52.189Z,81.50
2023-02-17T17:29:21.210Z,81.50
2023-02-17T17:31:50.037Z,81.60
2023-02-17T17:34:18.240Z,81.70
2023-02-17T17:36:47.522Z,81.50
2023-02-17T17:39:18.179Z,81.50
2023-02-17T17:41:48.152Z,81.60
2023-02-17T17:44:16.649Z,81.80
2023-02-17T17:46:45.642Z,81.50
2023-02-17T17:49:18.433Z,81.50
2023-02-17T17:51:46.920Z,81.90
2023-02-17T17:54:15.582Z,81.70
2023-02-17T17:56:44.304Z,81.90
2023-02-17T17:59:15.194Z,81.70
2023-02-17T18:01:45.636Z,81.80
2023-02-17T18:04:14.181Z,81.80
2023-02-17T18:06:46.165Z,81.70
2023-02-17T18:09:30.625Z,81.90
2023-02-17T18:12:02.700Z,81.80
2023-02-17T18:14:33.605Z,81.80
2023-02-17T18:17:02.286Z,81.90
2023-02-17T18:19:31.567Z,82.20
2023-02-17T18:21:59.714Z,82.30
2023-02-17T18:24:28.246Z,82.10
2023-02-17T18:26:56.453Z,82.10
2023-02-17T18:29:24.565Z,82.00
2023-02-17T18:31:54.243Z,82.20
2023-02-17T18:34:22.438Z,82.10
2023-02-17T18:36:50.631Z,82.10
2023-02-17T18:39:19.273Z,82.20
2023-02-17T18:41:47.734Z,82.30
2023-02-17T18:44:15.885Z,82.30
2023-02-17T18:46:44.180Z,82.50
2023-02-17T18:49:15.460Z,82.70
2023-02-17T18:51:43.981Z,82.70
2023-02-17T18:54:12.955Z,82.70
2023-02-17T18:56:41.603Z,83.10
2023-02-17T18:59:09.756Z,83.20
2023-02-17T19:01:40.952Z,83.10
2023-02-17T19:04:11.781Z,83.10
2023-02-17T19:06:41.334Z,84.10
2023-02-17T19:09:09.568Z,83.30
2023-02-17T19:11:38.597Z,83.20
2023-02-17T19:14:07.152Z,83.30
2023-02-17T19:16:35.257Z,83.20
2023-02-17T19:19:05.696Z,83.40
2023-02-17T19:21:36.354Z,83.30
2023-02-17T19:24:06.184Z,83.30
2023-02-17T19:26:35.143Z,83.40
2023-02-17T19:29:03.667Z,83.20
2023-02-17T19:31:32.410Z,83.00
2023-02-17T19:34:00.535Z,83.00
2023-02-17T19:36:29.327Z,83.00
2023-02-17T19:38:58.924Z,83.00
2023-02-17T19:41:28.393Z,82.90
2023-02-17T19:43:56.517Z,82.70
2023-02-17T19:46:26.226Z,82.70
2023-02-17T19:48:54.317Z,82.80
2023-02-17T19:51:23.158Z,82.70
2023-02-17T19:53:51.571Z,82.60
2023-02-17T19:56:21.907Z,82.50
2023-02-17T19:58:52.006Z,82.50
2023-02-17T20:01:23.706Z,82.50
2023-02-17T20:03:52.231Z,82.30
2023-02-17T20:06:22.225Z,82.40
2023-02-17T20:08:54.811Z,82.50
2023-02-17T20:11:23.788Z,82.50
2023-02-17T20:13:53.343Z,82.40
2023-02-17T20:16:22.864Z,82.40
2023-02-17T20:18:51.608Z,82.40
2023-02-17T20:21:23.079Z,82.50
2023-02-17T20:23:51.684Z,82.50
2023-02-17T20:26:23.911Z,82.30
2023-02-17T20:28:54.022Z,82.30
2023-02-17T20:31:23.214Z,82.40
2023-02-17T20:33:51.716Z,82.20
2023-02-17T20:36:21.914Z,82.30
2023-02-17T20:38:50.898Z,82.10
2023-02-17T20:41:20.744Z,82.20
2023-02-17T20:43:49.714Z,82.40
2023-02-17T20:46:23.102Z,82.30
2023-02-17T20:48:52.025Z,82.30
2023-02-17T20:51:20.532Z,82.10
2023-02-17T20:53:49.683Z,82.20
2023-02-17T20:56:20.594Z,82.10
2023-02-17T20:58:49.945Z,83.20
2023-02-17T21:01:19.969Z,82.20
2023-02-17T21:03:49.403Z,82.10
2023-02-17T21:06:22.781Z,82.10
2023-02-17T21:08:52.961Z,82.10
2023-02-17T21:11:21.727Z,82.10
2023-02-17T21:13:50.333Z,82.00
2023-02-17T21:16:22.188Z,81.90
2023-02-17T21:18:50.929Z,82.00
2023-02-17T21:21:19.171Z,81.90
2023-02-17T21:23:48.512Z,82.00
2023-02-17T21:26:17.746Z,82.10
2023-02-17T21:28:48.593Z,82.10
2023-02-17T21:31:17.335Z,82.10
2023-02-17T21:33:46.834Z,82.10
2023-02-17T21:36:18.239Z,82.10
2023-02-17T21:38:47.197Z,82.20
2023-02-17T21:41:17.986Z,82.20
2023-02-17T21:44:04.344Z,82.20
2023-02-17T21:46:32.997Z,82.20
2023-02-17T21:49:03.439Z,82.20
2023-02-17T21:51:31.576Z,82.30
2023-02-17T21:54:00.344Z,82.30
2023-02-17T21:56:28.658Z,82.50
2023-02-17T21:58:57.759Z,82.70
2023-02-17T22:01:27.988Z,82.70
2023-02-17T22:03:57.790Z,82.70
2023-02-17T22:06:29.739Z,82.70
2023-02-17T22:08:59.796Z,83.00
2023-02-17T22:11:30.746Z,82.90
2023-02-17T22:14:00.619Z,82.90
2023-02-17T22:16:30.788Z,82.80
2023-02-17T22:18:59.638Z,83.10
2023-02-17T22:21:30.343Z,83.90
2023-02-17T22:23:58.860Z,83.30
2023-02-17T22:26:28.596Z,83.20
2023-02-17T22:28:57.255Z,83.20
2023-02-17T22:31:28.413Z,83.20
2023-02-17T22:33:57.779Z,83.20
2023-02-17T22:36:27.534Z,83.20
2023-02-17T22:38:57.000Z,83.20
2023-02-17T22:41:26.724Z,83.10
2023-02-17T22:43:55.733Z,83.20
2023-02-17T22:46:27.161Z,83.20
2023-02-17T22:48:57.147Z,83.20
2023-02-17T22:51:29.020Z,83.20
2023-02-17T22:53:59.180Z,83.10
2023-02-17T22:56:27.571Z,83.10
2023-02-17T22:59:01.258Z,82.70
2023-02-17T23:01:30.892Z,83.20
2023-02-17T23:03:59.263Z,83.20
2023-02-17T23:06:29.586Z,83.20
2023-02-17T23:08:59.608Z,83.20
2023-02-17T23:11:47.677Z,83.20
2023-02-17T23:14:18.152Z,83.20
2023-02-17T23:16:47.846Z,83.20
2023-02-17T23:19:20.185Z,83.40
2023-02-17T23:21:50.363Z,83.40
2023-02-17T23:24:21.625Z,83.40
2023-02-17T23:26:51.211Z,83.40
2023-02-17T23:29:19.663Z,83.40
2023-02-17T23:31:48.108Z,83.50
2023-02-17T23:34:17.360Z,83.60
2023-02-17T23:36:47.198Z,83.90
2023-02-17T23:39:16.769Z,83.80
2023-02-17T23:41:46.429Z,83.70
2023-02-17T23:44:15.981Z,83.70
2023-02-17T23:46:45.308Z,83.90
2023-02-17T23:49:15.456Z,83.90
2023-02-17T23:51:43.947Z,83.80
2023-02-17T23:54:12.693Z,83.70
2023-02-17T23:56:40.850Z,83.60
2023-02-17T23:59:12.126Z,83.90
